Airfield :
LOGIN :

Register | Disclaimer

   EN    FR    IT 

 










Legend :    VFR   Marginal VFR   IFR   Intensive IFR   Very Intensive IFR
Visi :
Ceiling :
>= 8 km
>= 3000ft
5 to 8 km
1000 to 3000 ft
1500m to 5 km
500 to 1000 ft
800 to 1500m
200 to 500 ft
< 800m
< 200 ft
Symbols :   Thunderstorms  Fog  Heavy snow  Heavy precipitations  Wind > 20 kt
SIGMETs :     Misc.  Thunderstorms  Icing  Turbulence  Mountain Waves  Volcanic Ashes






- Airport Elevation : 17 ft
- IATA code : DND


EGPN - Dundee

CURRENT METAR :
  • 151220Z 02008KT 340V060 9999 SCT037 08/04 Q1016

EXPIRED METARs :
  • 151150Z 02007KT 350V050 9999 SCT042 08/04 Q1016
  • 151120Z 02006KT 350V060 9999 SCT042 08/04 Q1016
  • 151050Z 02008KT 340V050 9999 SCT042 08/03 Q1016
  • 151020Z 02008KT 350V050 9999 SCT042 07/03 Q1016
  • 150950Z 36006KT 330V040 9999 SCT042 07/03 Q1017

TAF TAF EGPN
Valid from the 15 at 12:00 until the 15 at 21:00 UTC


151100Z 1512/1521 01009KT 9999 SCT040
PROB30
TEMPO 1512/1521 6000 SHRA BKN014



MET'MAP, your aeronautical weather chart ! - Copyright ORBIFLY December 2007 - Disclaimer

ORBIFLY MET'MAP TEAM :

Programming & Development : Alexandra Zaïnal
Concept & Development : Baudouin d'Aumeries
Co-Development & Prog : Marc-Olivier Méhu
Technical & hardware support : Manuel Goepfert

Contact : metmap@orbifly.com




SOURCES & CREDITS :

   NOAA